KONL/ONL METAR and TAF weather

Enter ICAO airport designator
Station Type Date Time Source
KONL METAR 2020/11/28 19:35 UTC NOAA

KONL 281935Z AUTO 26007KT 10SM CLR 17/M07 A2995 RMK AO2 T01701068


Station Type Date Time Source
KONL Decoded METAR 2020/11/28 19:35 UTC NOAA

O'Neill / Baker Field, NE, United States (KONL) 42-28N 098-41W
Nov 28, 2020 - 02:35 PM EST / 2020.11.28 1935 UTC
Wind: from the W (260 degrees) at 8 MPH (7 KT):0
Visibility: 10 mile(s):0
Sky conditions: clear
Temperature: 62.6 F (17.0 C)
Dew Point: 19.8 F (-6.8 C)
Relative Humidity: 18%
Pressure (altimeter): 29.95 in. Hg (1014 hPa)
ob: KONL 281935Z AUTO 26007KT 10SM CLR 17/M07 A2995 RMK AO2 T01701068
cycle: 19

Station Type Date Time Source
KONL TAF UTC NOAA

Error!

Example: see airport list